OIZI  Iran Shahr  Airport

Iranshahr, Iran

Add Bookmark
ICAO OIZI
Type Airport
Status Operational
Latitude
27° 14' 9" N
27.236099
Longitude
60° 43' 12" E
60.720001
Local (GMT +4.5 ) UTC
May 25, 2016 01:59 am May 24, 2016 21:29
Sunrise-Sunset Local UTC
Begin Civil Twilight 05:07 am 00:37
Sunrise 05:32 am 01:02
Sunset 07:15 pm 14:45
End Civil Twilight 07:41 pm 15:11
VFR
VFR
MVFR
MVFR
IFR
IFR
LIFR
LIFR
Unknown
Unavailable

Current Weather

METAR Observed MVFR
OIZI 242000Z 34004KT 8000 NSC 34/03 Q1005 Tue, May 24, 2016 @ 20:00 UTC
(1 Hour, 29 Minutes ago)
Marginal Visual Flight Rules
Wind Visibility Conditions
340° at 4 knots (7 kph) 7,998 m
  • No significant weather
Temperatures Readings Precipitation
Current Temp
34°C
93°F
Dewpoint
3°C
37°F
Humidity 14%
Altimeter 29.68" Hg
Sea Level Pressure 1,005 mb
Field Elevation
591 m
1,939 ft
None Recorded
-
-

CheckWX.com is intended as a tool to help pilots better visualize weather data. It is not intended as a substitute for an official weather briefing obtained from a Flight Service Station. CheckWX.com does not meet the FAA requirements for an official pre-flight weather briefing. Therefore, it's important that pilots still call and obtain an official FSS pre-flight weather briefing.

© 2007-2016 CheckWX.com
21:29:42 UTC